Time;durP1;ratioP1;P1;durP2;ratioP2;P2;SDS_P1;SDS_P2;PMS_P1;PMS_P2;Temp;Humidity;BMP_temperature;BMP_pressure;BME280_temperature;BME280_humidity;BME280_pressure;Samples;Min_cycle;Max_cycle;Signal;HPM_P1;HPM_P2
2022/08/26 00:04:58;;;;;;;7.13;5.70;;;22.80;80.90;;;;;;10425587;28;20248;-80
2022/08/26 00:10:00;;;;;;;6.50;6.00;;;22.70;81.20;;;;;;10465606;28;20244;-81
2022/08/26 00:15:06;;;;;;;7.00;6.50;;;22.70;81.60;;;;;;10442529;28;20221;-79
2022/08/26 00:20:11;;;;;;;6.23;5.47;;;22.70;81.60;;;;;;10425420;28;20312;-80
2022/08/26 00:25:15;;;;;;;6.03;5.70;;;22.70;81.20;;;;;;10452181;28;20630;-81
2022/08/26 00:30:20;;;;;;;6.10;5.80;;;22.70;81.50;;;;;;10445996;28;20255;-80
2022/08/26 00:35:24;;;;;;;5.87;5.50;;;22.60;81.40;;;;;;10416919;28;20201;-79
2022/08/26 00:40:30;;;;;;;6.30;5.80;;;22.60;82.00;;;;;;10458941;28;20762;-79
2022/08/26 00:45:39;;;;;;;5.97;5.57;;;22.60;81.90;;;;;;10456802;28;20215;-79
2022/08/26 00:50:49;;;;;;;7.73;6.43;;;22.60;82.00;;;;;;10417513;28;20222;-80
2022/08/26 00:55:54;;;;;;;6.63;6.13;;;22.50;82.10;;;;;;10444312;28;20228;-80
2022/08/26 01:00:58;;;;;;;6.57;6.20;;;22.50;82.20;;;;;;10456458;28;20217;-81
2022/08/26 01:06:02;;;;;;;6.43;5.97;;;22.40;82.80;;;;;;10421093;28;20663;-81
2022/08/26 01:11:05;;;;;;;6.80;6.30;;;22.40;82.40;;;;;;10461413;28;20647;-81
2022/08/26 01:16:13;;;;;;;7.00;6.40;;;22.40;82.50;;;;;;10420622;28;20604;-81
2022/08/26 01:21:22;;;;;;;7.57;6.90;;;22.30;82.90;;;;;;10459329;28;20212;-81
2022/08/26 01:26:30;;;;;;;7.40;6.80;;;22.30;83.30;;;;;;10403466;28;20297;-81
2022/08/26 01:31:38;;;;;;;7.60;6.73;;;22.30;83.70;;;;;;10467987;22;20240;-81
2022/08/26 01:36:40;;;;;;;8.43;7.67;;;22.30;83.90;;;;;;10467544;28;20189;-81
2022/08/26 01:41:45;;;;;;;7.47;6.87;;;22.30;84.40;;;;;;10458705;28;20215;-81
2022/08/26 01:46:50;;;;;;;8.40;7.23;;;22.30;84.30;;;;;;10442223;28;20618;-81
2022/08/26 01:51:54;;;;;;;7.87;7.03;;;22.30;84.60;;;;;;10417738;28;20697;-81
2022/08/26 01:56:59;;;;;;;7.23;6.70;;;22.30;84.20;;;;;;10436841;28;20202;-81
2022/08/26 02:02:02;;;;;;;7.70;7.07;;;22.30;84.20;;;;;;10467902;28;20296;-81
2022/08/26 02:07:08;;;;;;;7.73;7.13;;;22.30;84.60;;;;;;10427970;28;20252;-81
2022/08/26 02:12:14;;;;;;;8.50;7.70;;;22.30;84.50;;;;;;10464745;28;20419;-81
2022/08/26 02:17:17;;;;;;;8.10;7.30;;;22.30;84.70;;;;;;10425036;28;20268;-81
2022/08/26 02:22:21;;;;;;;7.90;7.30;;;22.30;84.30;;;;;;10464892;28;20212;-81
2022/08/26 02:27:28;;;;;;;8.50;7.80;;;22.20;84.30;;;;;;10426259;28;20284;-81
2022/08/26 02:32:30;;;;;;;7.67;7.07;;;22.20;84.60;;;;;;10467403;28;20708;-81
2022/08/26 02:37:33;;;;;;;8.70;8.00;;;22.10;84.40;;;;;;10432095;28;20190;-81
2022/08/26 02:42:37;;;;;;;7.87;7.27;;;22.10;85.50;;;;;;10471230;28;20699;-81
2022/08/26 02:47:39;;;;;;;9.80;8.80;;;22.10;84.90;;;;;;10409649;28;20197;-81
2022/08/26 02:52:42;;;;;;;7.97;7.37;;;22.00;85.50;;;;;;10471596;28;20243;-81
2022/08/26 02:57:45;;;;;;;8.80;8.10;;;22.00;85.50;;;;;;10428858;28;20292;-81
2022/08/26 03:02:48;;;;;;;9.60;8.90;;;21.90;86.30;;;;;;10471674;28;20556;-81
2022/08/26 03:07:50;;;;;;;12.47;9.17;;;21.80;86.50;;;;;;10470568;28;20185;-81
2022/08/26 03:12:54;;;;;;;9.43;8.73;;;21.80;86.60;;;;;;10413203;28;20693;-81
2022/08/26 03:17:56;;;;;;;11.13;9.27;;;21.80;86.90;;;;;;10468903;28;20217;-81
2022/08/26 03:22:58;;;;;;;10.00;9.30;;;21.80;87.30;;;;;;10427464;28;20297;-81
2022/08/26 03:28:02;;;;;;;9.63;8.83;;;21.80;86.70;;;;;;10432976;28;20548;-81
2022/08/26 03:33:05;;;;;;;10.03;8.90;;;21.80;87.10;;;;;;10467905;28;20231;-81
2022/08/26 03:38:08;;;;;;;9.37;8.67;;;21.80;87.20;;;;;;10412791;28;20202;-81
2022/08/26 03:43:14;;;;;;;9.83;9.00;;;21.70;87.00;;;;;;10460624;28;20213;-81
2022/08/26 03:48:18;;;;;;;10.07;9.17;;;21.70;87.40;;;;;;10404908;28;20200;-81
2022/08/26 03:53:20;;;;;;;10.40;9.37;;;21.70;87.40;;;;;;10461198;28;20241;-81
2022/08/26 03:58:24;;;;;;;9.37;8.60;;;21.70;86.90;;;;;;10422989;28;20684;-81
2022/08/26 04:08:46;;;;;;;9.23;8.50;;;21.60;86.80;;;;;;10422630;28;20216;-81
2022/08/26 04:13:50;;;;;;;9.60;8.80;;;21.50;87.00;;;;;;10461939;28;20228;-81
2022/08/26 04:18:53;;;;;;;9.67;9.00;;;21.50;87.20;;;;;;10426231;28;20186;-81
2022/08/26 04:23:56;;;;;;;8.00;7.40;;;21.50;87.50;;;;;;10430665;28;20260;-81
2022/08/26 04:29:00;;;;;;;9.43;8.80;;;21.50;86.90;;;;;;10455103;28;20233;-81
2022/08/26 04:34:03;;;;;;;9.20;8.60;;;21.50;87.10;;;;;;10420186;28;20230;-81
2022/08/26 04:39:05;;;;;;;7.67;6.97;;;21.40;87.00;;;;;;10456221;28;20243;-81
2022/08/26 04:44:09;;;;;;;9.03;8.40;;;21.40;87.20;;;;;;10460161;28;20209;-81
2022/08/26 04:49:12;;;;;;;9.03;8.43;;;21.40;87.10;;;;;;10421425;28;20213;-81
2022/08/26 04:54:15;;;;;;;9.60;9.00;;;21.40;87.50;;;;;;10450826;28;20572;-81
2022/08/26 04:59:18;;;;;;;8.93;8.40;;;21.40;87.80;;;;;;10457977;28;20289;-81
2022/08/26 05:04:21;;;;;;;9.53;8.80;;;21.40;87.70;;;;;;10400861;28;20217;-81
2022/08/26 05:09:23;;;;;;;9.50;8.60;;;21.40;87.80;;;;;;10416166;28;20229;-81
2022/08/26 05:14:26;;;;;;;10.50;8.77;;;21.40;88.30;;;;;;10436316;28;20226;-81
2022/08/26 05:19:30;;;;;;;9.50;8.90;;;21.40;88.00;;;;;;10413934;28;20194;-81
2022/08/26 05:24:32;;;;;;;8.90;8.30;;;21.40;88.50;;;;;;10420813;28;20224;-82
2022/08/26 05:29:36;;;;;;;8.87;8.17;;;21.50;87.90;;;;;;10402725;28;20221;-81
2022/08/26 05:34:38;;;;;;;8.67;8.03;;;21.50;88.20;;;;;;10423711;28;20236;-81
2022/08/26 05:39:40;;;;;;;7.93;7.33;;;21.50;88.10;;;;;;10418033;28;20201;-81
2022/08/26 05:44:44;;;;;;;9.10;8.40;;;21.60;88.10;;;;;;10407955;28;20221;-81
2022/08/26 05:49:46;;;;;;;9.20;8.60;;;21.60;88.10;;;;;;10418992;28;20301;-81
2022/08/26 05:54:48;;;;;;;9.83;8.90;;;21.60;88.10;;;;;;10448681;28;20222;-82
2022/08/26 05:59:52;;;;;;;10.33;9.43;;;21.70;88.20;;;;;;10444383;28;20190;-82
2022/08/26 06:04:54;;;;;;;10.13;9.30;;;21.70;88.00;;;;;;10453005;28;20233;-82
2022/08/26 06:09:58;;;;;;;11.13;9.13;;;21.80;88.10;;;;;;10410627;28;20217;-82
2022/08/26 06:15:01;;;;;;;8.93;8.00;;;21.80;87.60;;;;;;10455374;28;20224;-82
2022/08/26 06:20:04;;;;;;;9.37;8.57;;;21.80;87.60;;;;;;10428149;28;20402;-82
2022/08/26 06:30:29;;;;;;;9.50;8.60;;;21.90;87.80;;;;;;10457362;28;20228;-82
2022/08/26 06:35:36;;;;;;;9.40;8.70;;;21.90;87.40;;;;;;10411622;28;20201;-82
2022/08/26 06:40:41;;;;;;;10.60;9.70;;;22.00;88.00;;;;;;10459090;28;20753;-82
2022/08/26 06:45:45;;;;;;;10.43;9.67;;;22.00;88.10;;;;;;10429290;28;20205;-82
2022/08/26 06:50:48;;;;;;;9.60;8.50;;;22.00;88.00;;;;;;10451352;28;20209;-82
2022/08/26 06:55:50;;;;;;;9.83;9.20;;;22.10;87.80;;;;;;10454771;28;20198;-82
2022/08/26 07:00:53;;;;;;;9.70;8.90;;;22.10;87.50;;;;;;10440844;28;20213;-82
2022/08/26 07:06:01;;;;;;;10.43;8.40;;;22.20;87.70;;;;;;10429776;28;20198;-82
2022/08/26 07:11:05;;;;;;;11.40;10.60;;;22.30;87.30;;;;;;10452782;28;20225;-81
2022/08/26 07:16:13;;;;;;;9.90;9.20;;;22.30;87.00;;;;;;10428126;28;20209;-81
2022/08/26 07:21:16;;;;;;;9.03;8.43;;;22.40;87.00;;;;;;10456126;28;20651;-82
2022/08/26 07:26:21;;;;;;;10.97;10.17;;;22.50;88.30;;;;;;10427493;28;20210;-81
2022/08/26 07:31:27;;;;;;;11.13;10.33;;;22.60;86.50;;;;;;10481633;22;20225;-80
2022/08/26 07:36:29;;;;;;;9.10;8.50;;;22.70;86.80;;;;;;10493017;28;20227;-79
2022/08/26 07:41:31;;;;;;;10.50;9.27;;;22.90;86.70;;;;;;10474058;28;20630;-79
2022/08/26 07:46:34;;;;;;;11.77;10.67;;;23.00;85.80;;;;;;10498519;28;20197;-78
2022/08/26 07:51:37;;;;;;;11.00;10.17;;;23.20;84.00;;;;;;10466086;28;20229;-80
2022/08/26 07:56:39;;;;;;;9.50;8.60;;;23.60;84.70;;;;;;10477757;28;20194;-79
2022/08/26 08:01:43;;;;;;;10.33;9.50;;;23.90;83.50;;;;;;10491896;28;20228;-79
2022/08/26 08:06:46;;;;;;;11.10;10.10;;;24.30;83.00;;;;;;10473597;28;20239;-79
2022/08/26 08:11:48;;;;;;;11.20;10.13;;;24.60;82.60;;;;;;10495372;28;20374;-81
2022/08/26 08:16:52;;;;;;;10.70;9.83;;;24.80;82.50;;;;;;10473420;28;20254;-79
2022/08/26 08:21:54;;;;;;;9.13;8.43;;;25.10;82.00;;;;;;10505443;28;20236;-80
2022/08/26 08:26:56;;;;;;;10.70;9.47;;;25.40;81.10;;;;;;10426461;28;20209;-80
2022/08/26 08:31:59;;;;;;;9.77;8.87;;;25.60;80.30;;;;;;10480479;28;20645;-81
2022/08/26 08:37:02;;;;;;;10.03;8.30;;;25.80;78.60;;;;;;10472506;28;20208;-79
2022/08/26 08:42:26;;;;;;;10.00;9.10;;;26.00;78.10;;;;;;10490870;28;20319;-78
2022/08/26 08:47:34;;;;;;;7.00;6.40;;;26.20;77.70;;;;;;10464880;28;20223;-78
2022/08/26 08:52:37;;;;;;;10.00;8.83;;;26.30;76.80;;;;;;10490701;28;20220;-80
2022/08/26 08:57:49;;;;;;;8.60;7.83;;;26.50;75.80;;;;;;10464211;28;20555;-78
2022/08/26 09:02:56;;;;;;;6.03;5.63;;;26.70;75.90;;;;;;10490617;28;20216;-80
2022/08/26 09:08:03;;;;;;;7.47;6.97;;;26.90;75.40;;;;;;10463908;28;20193;-80
2022/08/26 09:13:08;;;;;;;7.97;7.53;;;27.20;74.40;;;;;;10493196;28;20223;-79
2022/08/26 09:18:32;;;;;;;8.07;7.47;;;27.40;73.90;;;;;;10464658;28;20201;-79
2022/08/26 09:23:37;;;;;;;8.13;7.47;;;27.60;71.40;;;;;;10493473;28;20432;-80
2022/08/26 09:28:42;;;;;;;8.03;7.07;;;27.70;72.10;;;;;;10500621;28;20640;-80
2022/08/26 09:33:45;;;;;;;8.40;7.80;;;27.80;71.40;;;;;;10459331;28;20293;-80
2022/08/26 09:38:48;;;;;;;9.27;8.47;;;27.90;71.50;;;;;;10497738;28;20197;-80
2022/08/26 09:44:08;;;;;;;7.50;6.90;;;28.00;71.60;;;;;;10460250;28;20212;-79
2022/08/26 09:49:28;;;;;;;8.27;7.67;;;28.00;72.00;;;;;;10494575;28;20279;-80
2022/08/26 09:54:30;;;;;;;9.17;7.63;;;28.00;71.50;;;;;;10456195;28;20592;-80
2022/08/26 09:59:32;;;;;;;9.57;8.90;;;28.00;71.10;;;;;;10495965;28;20275;-80
2022/08/26 10:04:37;;;;;;;8.73;8.00;;;28.10;70.60;;;;;;10457843;28;20217;-80
2022/08/26 10:09:43;;;;;;;9.43;8.73;;;28.20;70.20;;;;;;10496695;28;20212;-80
2022/08/26 10:14:49;;;;;;;9.03;7.93;;;28.40;69.90;;;;;;10463185;28;20284;-79
2022/08/26 10:19:58;;;;;;;8.60;8.00;;;28.40;70.70;;;;;;10499277;28;20225;-80
2022/08/26 10:25:03;;;;;;;9.17;8.40;;;28.30;70.60;;;;;;10459380;28;20217;-80
2022/08/26 10:30:09;;;;;;;9.67;8.77;;;28.00;70.90;;;;;;10499755;28;20216;-80
2022/08/26 10:35:16;;;;;;;9.73;8.87;;;27.90;71.30;;;;;;10459811;28;20225;-80
2022/08/26 10:40:23;;;;;;;12.73;9.40;;;27.70;71.00;;;;;;10482291;28;20189;-79
2022/08/26 10:45:28;;;;;;;11.33;9.53;;;27.60;70.20;;;;;;10421914;28;20214;-79
2022/08/26 10:50:35;;;;;;;11.67;10.70;;;27.50;70.40;;;;;;10425067;28;20260;-80
2022/08/26 10:55:44;;;;;;;12.33;9.60;;;27.60;70.20;;;;;;10439785;28;20224;-79
2022/08/26 11:06:23;;;;;;;10.10;9.20;;;27.60;69.10;;;;;;10503053;28;20185;-79
2022/08/26 11:11:45;;;;;;;9.40;8.77;;;27.50;68.60;;;;;;10475155;28;20248;-79
2022/08/26 11:16:50;;;;;;;9.10;8.30;;;27.30;69.90;;;;;;10501949;28;20612;-79
2022/08/26 11:22:05;;;;;;;8.70;7.90;;;27.30;69.50;;;;;;10472414;28;20232;-79
2022/08/26 11:27:09;;;;;;;11.57;9.33;;;27.20;68.90;;;;;;10485652;28;20223;-79
2022/08/26 11:32:24;;;;;;;9.07;8.20;;;27.20;69.40;;;;;;10498087;28;20311;-80
2022/08/26 11:37:33;;;;;;;11.27;10.27;;;27.30;69.00;;;;;;10474135;28;20188;-79
2022/08/26 11:42:40;;;;;;;10.20;8.77;;;27.60;69.70;;;;;;10496985;28;20740;-80
2022/08/26 11:47:43;;;;;;;9.70;8.90;;;28.00;70.00;;;;;;10473191;28;20222;-80
2022/08/26 11:52:55;;;;;;;9.30;8.30;;;28.20;70.50;;;;;;10486562;28;20291;-80
2022/08/26 11:58:00;;;;;;;8.70;8.00;;;28.30;68.90;;;;;;10479766;28;20720;-80
2022/08/26 12:03:07;;;;;;;10.47;9.50;;;28.30;68.60;;;;;;10494061;28;20224;-79
2022/08/26 12:08:15;;;;;;;14.80;8.40;;;28.30;70.00;;;;;;10477123;28;20275;-79
2022/08/26 12:13:23;;;;;;;10.27;9.37;;;28.40;69.30;;;;;;10494093;28;20256;-79
2022/08/26 12:18:29;;;;;;;9.37;8.67;;;28.40;67.20;;;;;;10474097;28;20204;-80
2022/08/26 12:23:41;;;;;;;10.30;9.30;;;28.60;68.10;;;;;;10493326;28;20304;-80
2022/08/26 12:28:45;;;;;;;9.53;8.37;;;28.70;66.60;;;;;;10447219;28;20213;-80
2022/08/26 12:33:48;;;;;;;9.27;8.67;;;28.90;66.40;;;;;;10489032;28;20225;-80
2022/08/26 12:38:52;;;;;;;13.50;9.60;;;29.10;65.80;;;;;;10476508;28;20205;-79
2022/08/26 12:43:55;;;;;;;12.30;10.67;;;29.20;65.80;;;;;;10503172;28;20217;-80
2022/08/26 12:49:01;;;;;;;9.97;8.20;;;29.20;66.80;;;;;;10476439;28;20623;-81
2022/08/26 12:54:06;;;;;;;9.70;8.87;;;29.30;67.00;;;;;;10492420;28;20225;-81
2022/08/26 12:59:20;;;;;;;14.37;9.60;;;29.20;66.90;;;;;;10472370;28;20205;-80
2022/08/26 13:04:41;;;;;;;16.83;9.03;;;29.10;67.40;;;;;;10454393;28;20216;-81
2022/08/26 13:09:46;;;;;;;10.47;9.53;;;29.10;66.30;;;;;;10459905;28;20263;-80
2022/08/26 13:14:49;;;;;;;11.93;9.40;;;29.00;66.70;;;;;;10449469;28;20231;-79
2022/08/26 13:19:51;;;;;;;11.33;10.23;;;28.90;67.30;;;;;;10446163;28;20203;-81
2022/08/26 13:24:56;;;;;;;10.47;9.47;;;28.80;67.40;;;;;;10440066;28;20238;-81
2022/08/26 13:30:00;;;;;;;16.57;8.27;;;28.70;67.50;;;;;;10446900;28;20208;-81
2022/08/26 13:35:02;;;;;;;10.50;9.13;;;28.80;66.50;;;;;;10446101;28;20778;-79
2022/08/26 13:40:07;;;;;;;8.47;7.87;;;28.90;66.00;;;;;;10465502;28;20200;-80
2022/08/26 13:45:10;;;;;;;10.63;8.77;;;28.90;66.50;;;;;;10478587;28;20248;-79
2022/08/26 13:50:12;;;;;;;10.23;8.60;;;28.90;65.50;;;;;;10467073;28;20196;-80
2022/08/26 13:55:16;;;;;;;9.07;8.13;;;28.80;63.50;;;;;;10480726;28;20667;-80
2022/08/26 14:00:18;;;;;;;7.07;6.47;;;28.70;64.70;;;;;;10471173;28;20567;-79
2022/08/26 14:05:20;;;;;;;8.60;7.70;;;28.50;63.10;;;;;;10464036;28;20513;-78
2022/08/26 14:10:24;;;;;;;9.27;8.43;;;28.30;63.50;;;;;;10464971;28;20192;-77
2022/08/26 14:15:26;;;;;;;7.83;7.10;;;28.20;62.60;;;;;;10479509;28;20240;-78
2022/08/26 14:20:31;;;;;;;8.57;7.87;;;28.00;63.80;;;;;;10461670;28;20196;-78
2022/08/26 14:25:34;;;;;;;9.13;8.17;;;27.80;64.00;;;;;;10488031;28;20216;-78
2022/08/26 14:30:39;;;;;;;11.63;7.90;;;27.70;65.90;;;;;;10480309;28;20219;-79
2022/08/26 14:35:41;;;;;;;10.20;7.80;;;27.60;65.30;;;;;;10462414;28;20656;-77
2022/08/26 14:40:45;;;;;;;11.80;8.33;;;27.60;66.10;;;;;;10481595;28;20246;-78
2022/08/26 14:45:47;;;;;;;10.70;9.50;;;27.50;66.80;;;;;;10463744;28;20342;-78
2022/08/26 14:50:50;;;;;;;10.37;9.37;;;27.40;67.10;;;;;;10481260;28;20556;-78
2022/08/26 14:55:54;;;;;;;9.43;8.53;;;27.40;68.40;;;;;;10451585;28;20656;-77
2022/08/26 15:00:56;;;;;;;9.00;8.13;;;27.30;70.30;;;;;;10487800;28;20231;-78
2022/08/26 15:05:58;;;;;;;10.57;9.67;;;27.20;69.00;;;;;;10463783;28;20197;-78
2022/08/26 15:11:02;;;;;;;10.63;9.20;;;27.10;70.60;;;;;;10487824;28;20239;-78
2022/08/26 15:16:04;;;;;;;10.20;9.10;;;27.10;70.00;;;;;;10463810;28;20235;-78
2022/08/26 15:21:07;;;;;;;12.97;8.67;;;27.10;71.90;;;;;;10490593;28;20692;-78
2022/08/26 15:26:12;;;;;;;16.63;11.00;;;27.00;73.00;;;;;;10463844;28;20326;-78
2022/08/26 15:31:14;;;;;;;9.73;8.80;;;27.00;72.80;;;;;;10490891;28;20631;-78
2022/08/26 15:36:16;;;;;;;13.80;10.40;;;26.90;74.10;;;;;;10470815;28;20231;-78
2022/08/26 15:41:20;;;;;;;12.17;8.90;;;26.90;73.90;;;;;;10505642;28;20247;-77
2022/08/26 15:46:22;;;;;;;9.33;8.00;;;26.80;74.10;;;;;;10470343;28;20698;-79
2022/08/26 15:51:27;;;;;;;10.57;8.20;;;26.70;75.50;;;;;;10491058;28;20228;-79
2022/08/26 15:56:35;;;;;;;7.60;6.97;;;26.70;72.90;;;;;;10470331;28;20204;-79
2022/08/26 16:01:37;;;;;;;10.43;8.63;;;26.60;74.10;;;;;;10496444;28;20221;-79
2022/08/26 16:06:42;;;;;;;8.63;5.43;;;26.50;74.50;;;;;;10471643;28;20196;-80
2022/08/26 16:11:45;;;;;;;8.53;7.80;;;26.40;73.70;;;;;;10496380;28;20206;-79
2022/08/26 16:16:48;;;;;;;10.47;8.97;;;26.20;78.60;;;;;;10469390;28;20219;-79
2022/08/26 16:21:50;;;;;;;12.67;11.80;;;25.90;87.80;;;;;;10467386;28;20213;-79
2022/08/26 16:26:54;;;;;;;11.67;10.67;;;25.20;89.50;;;;;;10454590;28;20704;-79
2022/08/26 16:31:56;;;;;;;14.20;13.20;;;24.30;90.40;;;;;;10444697;28;20621;-78
2022/08/26 16:36:59;;;;;;;16.60;15.27;;;23.60;91.00;;;;;;10455345;28;20715;-78
2022/08/26 16:42:02;;;;;;;15.87;14.47;;;23.10;93.00;;;;;;10465836;28;20216;-79
2022/08/26 16:47:05;;;;;;;17.83;16.37;;;22.80;93.80;;;;;;10470996;28;20211;-79
2022/08/26 16:52:08;;;;;;;20.83;19.23;;;22.60;94.80;;;;;;10465784;28;20295;-79
2022/08/26 16:57:13;;;;;;;25.77;23.83;;;22.40;96.80;;;;;;10455345;28;20207;-79
2022/08/26 17:02:15;;;;;;;24.77;22.97;;;22.20;98.90;;;;;;10458637;28;20303;-79
2022/08/26 17:07:17;;;;;;;19.40;17.80;;;22.10;99.90;;;;;;10454660;28;20346;-79
2022/08/26 17:12:20;;;;;;;22.67;21.10;;;22.10;99.90;;;;;;10462186;28;20220;-77
2022/08/26 17:17:22;;;;;;;20.97;19.67;;;22.00;99.90;;;;;;10460550;28;20614;-79
2022/08/26 17:22:25;;;;;;;20.77;19.23;;;21.80;99.90;;;;;;10444736;28;20703;-78
2022/08/26 17:27:28;;;;;;;18.53;17.43;;;21.70;99.90;;;;;;10460212;28;20205;-79
2022/08/26 17:32:31;;;;;;;17.17;15.70;;;21.60;99.90;;;;;;10458191;28;20248;-80
2022/08/26 17:37:34;;;;;;;14.97;13.87;;;21.50;99.90;;;;;;10439980;28;20197;-78
2022/08/26 17:42:38;;;;;;;20.40;18.80;;;21.40;99.90;;;;;;10454812;28;20585;-78
2022/08/26 17:47:41;;;;;;;16.90;15.47;;;21.40;99.90;;;;;;10460964;28;20209;-81
2022/08/26 17:52:44;;;;;;;17.13;15.93;;;21.30;99.90;;;;;;10468634;28;20221;-80
2022/08/26 17:57:48;;;;;;;17.10;15.93;;;21.10;99.90;;;;;;10455350;28;20303;-80
2022/08/26 18:02:50;;;;;;;14.63;13.83;;;20.90;99.90;;;;;;10443214;28;20251;-80
2022/08/26 18:07:52;;;;;;;17.30;16.17;;;20.70;99.90;;;;;;10445590;28;20232;-78
2022/08/26 18:12:55;;;;;;;18.43;17.50;;;20.60;99.90;;;;;;10434119;28;20214;-77
2022/08/26 18:17:57;;;;;;;16.23;15.03;;;20.60;99.90;;;;;;10436366;28;20229;-80
2022/08/26 18:22:59;;;;;;;19.23;18.10;;;20.60;99.90;;;;;;10439419;28;20256;-80
2022/08/26 18:28:04;;;;;;;22.10;20.37;;;20.60;99.90;;;;;;10447031;28;20594;-80
2022/08/26 18:33:06;;;;;;;18.60;17.40;;;20.60;99.90;;;;;;10449390;28;20696;-80
2022/08/26 18:38:09;;;;;;;22.23;20.73;;;20.60;99.90;;;;;;10482413;28;20201;-80
2022/08/26 18:43:12;;;;;;;19.17;17.73;;;20.60;99.90;;;;;;10489301;28;20767;-78
2022/08/26 18:48:15;;;;;;;21.40;20.10;;;20.70;99.90;;;;;;10446605;28;20197;-78
2022/08/26 18:53:17;;;;;;;17.07;15.87;;;20.70;99.90;;;;;;10443799;28;20225;-78
2022/08/26 18:58:21;;;;;;;20.23;18.87;;;20.80;99.90;;;;;;10448435;28;20637;-78
2022/08/26 19:03:23;;;;;;;19.47;18.10;;;20.80;99.90;;;;;;10467644;28;20296;-76
2022/08/26 19:08:25;;;;;;;19.70;18.47;;;20.80;99.90;;;;;;10460911;28;20202;-77
2022/08/26 19:13:29;;;;;;;20.13;18.73;;;20.90;99.90;;;;;;10451795;28;20209;-77
2022/08/26 19:18:32;;;;;;;18.93;17.63;;;20.90;99.90;;;;;;10468102;28;20278;-78
2022/08/26 19:23:34;;;;;;;18.70;16.90;;;21.00;99.90;;;;;;10467199;28;20221;-80
2022/08/26 19:28:39;;;;;;;19.40;18.20;;;21.00;99.90;;;;;;10467370;28;20718;-78
2022/08/26 19:33:44;;;;;;;19.10;17.90;;;21.00;99.90;;;;;;10471488;28;20254;-80
2022/08/26 19:38:46;;;;;;;20.83;19.33;;;21.00;99.90;;;;;;10455193;28;20276;-80
2022/08/26 19:43:49;;;;;;;19.03;17.53;;;21.00;99.90;;;;;;10454461;28;20216;-78
2022/08/26 19:48:52;;;;;;;18.70;17.40;;;21.00;99.90;;;;;;10442103;28;20787;-77
2022/08/26 19:53:57;;;;;;;19.83;18.43;;;21.00;99.90;;;;;;10468423;28;20732;-79
2022/08/26 19:59:00;;;;;;;19.27;17.90;;;21.00;99.90;;;;;;10491751;28;20228;-78
2022/08/26 20:04:03;;;;;;;17.90;16.70;;;20.90;99.90;;;;;;10480105;28;20263;-78
2022/08/26 20:09:05;;;;;;;18.90;17.50;;;20.90;99.90;;;;;;10465896;28;20220;-78
2022/08/26 20:14:08;;;;;;;19.60;18.13;;;20.90;99.90;;;;;;10478152;28;20221;-78
2022/08/26 20:24:31;;;;;;;17.93;16.73;;;20.90;99.90;;;;;;10495923;28;20213;-78
2022/08/26 20:29:34;;;;;;;17.70;16.40;;;20.90;99.90;;;;;;10481505;28;20202;-78
2022/08/26 20:34:37;;;;;;;17.07;15.77;;;20.90;99.90;;;;;;10459199;28;20221;-80
2022/08/26 20:39:40;;;;;;;18.70;17.40;;;20.80;99.90;;;;;;10456759;28;20233;-80
2022/08/26 20:44:43;;;;;;;17.50;16.40;;;20.80;99.90;;;;;;10458085;28;20213;-79
2022/08/26 20:49:46;;;;;;;16.00;14.70;;;20.80;99.90;;;;;;10459871;28;20231;-81
2022/08/26 20:54:48;;;;;;;16.97;15.80;;;20.70;99.90;;;;;;10455370;28;20236;-81
2022/08/26 20:59:51;;;;;;;17.10;15.90;;;20.70;99.90;;;;;;10449885;28;20319;-78
2022/08/26 21:04:53;;;;;;;16.60;15.27;;;20.70;99.90;;;;;;10456606;28;20299;-79
2022/08/26 21:09:58;;;;;;;17.00;15.90;;;20.60;99.90;;;;;;10458043;28;20220;-81
2022/08/26 21:15:01;;;;;;;18.73;17.43;;;20.60;99.90;;;;;;10492009;28;20338;-80
2022/08/26 21:20:04;;;;;;;17.60;15.90;;;20.60;99.90;;;;;;10464416;28;20693;-80
2022/08/26 21:25:08;;;;;;;16.00;14.90;;;20.60;99.90;;;;;;10478774;28;20213;-80
2022/08/26 21:30:14;;;;;;;16.60;15.40;;;20.60;99.90;;;;;;10489666;28;20287;-80
2022/08/26 21:35:16;;;;;;;16.00;14.90;;;20.60;99.90;;;;;;10464037;28;20232;-78
2022/08/26 21:40:18;;;;;;;15.40;14.20;;;20.60;99.90;;;;;;10486851;28;20288;-77
2022/08/26 21:45:22;;;;;;;15.50;14.50;;;20.60;99.90;;;;;;10461416;28;20291;-79
2022/08/26 21:50:24;;;;;;;14.90;13.80;;;20.60;99.90;;;;;;10484865;28;20728;-79
2022/08/26 21:55:26;;;;;;;14.50;13.40;;;20.60;99.90;;;;;;10460632;28;20303;-79
2022/08/26 22:00:29;;;;;;;14.20;12.90;;;20.60;99.90;;;;;;10478701;28;20196;-79
2022/08/26 22:05:31;;;;;;;14.43;13.23;;;20.60;99.90;;;;;;10455269;28;20748;-76
2022/08/26 22:10:34;;;;;;;15.20;13.90;;;20.50;99.90;;;;;;10455338;28;20201;-77
2022/08/26 22:15:39;;;;;;;15.63;14.43;;;20.50;99.90;;;;;;10463305;28;20275;-78
2022/08/26 22:20:41;;;;;;;14.33;13.23;;;20.50;99.90;;;;;;10463020;28;20204;-77
2022/08/26 22:25:43;;;;;;;16.07;14.67;;;20.60;99.90;;;;;;10448403;28;20225;-79
2022/08/26 22:30:48;;;;;;;14.17;13.07;;;20.60;99.90;;;;;;10464841;28;20226;-78
2022/08/26 22:35:51;;;;;;;14.70;13.50;;;20.60;99.90;;;;;;10467077;28;20304;-78
2022/08/26 22:40:56;;;;;;;15.07;13.87;;;20.70;99.90;;;;;;10454997;28;20204;-78
2022/08/26 22:45:59;;;;;;;13.80;12.80;;;20.80;99.90;;;;;;10472487;28;20189;-78
2022/08/26 22:51:02;;;;;;;14.63;13.27;;;20.80;99.90;;;;;;10484601;28;20221;-79
2022/08/26 22:56:05;;;;;;;14.90;13.70;;;20.80;99.90;;;;;;10477516;28;20232;-78
2022/08/26 23:01:08;;;;;;;13.77;12.67;;;20.80;99.90;;;;;;10475944;28;20217;-77
2022/08/26 23:06:11;;;;;;;14.13;13.00;;;20.80;99.90;;;;;;10464707;28;20296;-79
2022/08/26 23:11:14;;;;;;;13.83;12.53;;;20.90;99.90;;;;;;10469883;28;20232;-78
2022/08/26 23:16:18;;;;;;;14.30;13.20;;;20.90;99.90;;;;;;10462255;28;20244;-78
2022/08/26 23:21:20;;;;;;;13.97;12.83;;;20.90;99.90;;;;;;10467996;28;20620;-79
2022/08/26 23:26:22;;;;;;;15.93;14.47;;;20.90;99.90;;;;;;10461012;28;20530;-77
2022/08/26 23:31:26;;;;;;;16.57;14.97;;;20.90;99.90;;;;;;10472452;28;20389;-79
2022/08/26 23:36:28;;;;;;;18.20;16.70;;;21.00;99.90;;;;;;10473787;28;20308;-78
2022/08/26 23:41:30;;;;;;;21.43;19.47;;;21.00;99.90;;;;;;10469320;28;20744;-77
2022/08/26 23:46:35;;;;;;;23.00;20.60;;;21.10;99.90;;;;;;10458418;28;20197;-78
2022/08/26 23:56:57;;;;;;;26.43;24.00;;;21.20;99.90;;;;;;10460242;28;20216;-79
